Wednesday, May 25, 2016
07:18 UTC
  |  Log In   |  Register Free
Airport Search:

Dawson Municipal Airport
(16J)

Dawson Municipal Airport Diagram
No Airport Diagram Available

FAA data valid effective Mar 31 2016 - May 26 2016 (unless otherwise noted).

 
 
 
 
 
 
 
 
 
 
 
 
 
 
Current Aviation Weather for 16J

Weather Summary


Current weather conditions are not available for 16J - The nearest NOAA weather station is at ABY, (17 nm SE from 16J)

The most recent METAR observation for 16J was updated at: 12:53 UTC
METAR for 16J is not available. Closest METAR is for KACJ 25.0 nm SW
KACJ  (25.0 nm SW)   (most recent observation was updated at 25:06 UTC)
250655Z AUTO 00000KT 10SM CLR 16/13 A3018 RMK AO2

KBIJ  (32.0 nm NE)   (most recent observation was updated at 25:06 UTC)
250655Z AUTO 00000KT 10SM CLR 16/16 A3016 RMK AO2

TAF for 16J is not available.
KABY
250520Z 2506/2606 00000KT P6SM SKC FM251500 17006KT P6SM SCT060 FM260100 VRB03KT P6SM SKC

GlobalAir.com is loading additional information.
 Current Weather at ABY
62.0 F° (16.7 C°)

South winds at 3.5 mph
Pressure:
30.18 in
Humidity:
80%
Wind:
South at 3.5 mph
Dew Point:
55.9 F° (13.3 C°)
Visibility:
10.00 mi
16J NOAA Radar




Find All Airport Services Find A Hotel Find A Rental Car Find A Golf Course Find A Restaurant $100 Hamburger



Airport Weather Forecast for 16J

Translated METAR for KABY (0653 UTC)
METAR:
KABY 250653Z AUTO 00000KT 10SM CLR 18/13 A3018 RMK AO2 SLP219 T01780133
Conditions at:
KABY (Southwest Georgia Rgnl, GA) observed 0653 UTC 25 May 2016
Temperature:
18°C (64.4°F)
Dewpoint:
13°C (55.4°F) [RH = 72.6]
Pressure:
30.18 inches Hg (1022 mb)
pressure at sea level is 219 in Hg
Winds:
from the N (000 degrees) at 0 mph (0 knots: 0 m/s)
Visibility:
10 mile(s)
Ceiling:
at least 12,000 feet AGL
Clouds:
Clear below 12,000 feet AGL
Remarks:
site is un-manned
site is automated and HAS a precipitation sensor

Translated TAF for KABY (Southwest Georgia Rgnl, GA) (0520 UTC)
TAF text:
KABY 250520Z 2506/2606 00000KT P6SM SKC
Forecast period:
Wednesday May 25 2016 06:00 UTC - Thursday May 26 2016 06:00 UTC
Forecast type:
FROM: standard forecast or significant change
Winds:
from the N (000 degrees) at 0 mph (0 knots: 0 m/s)
Visibility:
6 or more mile(s) (9.7+ km)
Ceiling:
at least 12,000 feet AGL
Clouds:
Clear Skies
Weather:
no significant weather observed at this time
TAF text:
FM251500 17006KT P6SM SCT060
Forecast period:
Wednesday May 25 2016 15:00 UTC - Thursday May 26 2016 01:00 UTC
Forecast type:
FROM: standard forecast or significant change
Winds:
from the S (170 degrees) at 6.9 mph (6 knots: 3.1 m/s)
Visibility:
6 or more mile(s) (9.7+ km)
Ceiling:
at least 12,000 feet AGL
Clouds:
Scattered Clouds at 6,000 feet AGL
Weather:
no significant weather observed at this time
TAF text:
FM260100 VRB03KT P6SM SKC
Forecast period:
Thursday May 26 2016 01:00 UTC - Thursday May 26 2016 06:00 UTC
Forecast type:
FROM: standard forecast or significant change
Winds:
variable wind direction at 3.5 mph (3 knots: 1.5 m/s)
Visibility:
6 or more mile(s) (9.7+ km)
Ceiling:
at least 12,000 feet AGL
Clouds:
Clear Skies
Weather:
no significant weather observed at this time
FBO's on the Field
FBO Company Facility Photos Services Transportation Aviation Fuel Prices: Prices include tax
Catering Weather Repair Courtesy Rental Type 100LL JetA JetA+ MOGAS 8087
 
Dawson/Terrell Co. Airport

This FBO has not yet been rated
FS:Independent
Last Updated: May-06
Login to update fuel prices
SS:
Contact Dawson/Terrell Co. AirportMore FBO Information
 
Add another FBO Facility Photos Catering Weather Repair Courtesy Rental Type 100LL JetA JetA+ MOGAS 8087
Services Transportation Aviation Fuel Prices: Prices include tax


model-print
model-print
model-print
model-print